sensor_id;sensor_type;location;lat;lon;timestamp;P1;durP1;ratioP1;P2;durP2;ratioP2
2213;SDS011;1113;42.018;23.986;2022-07-25T00:00:44;12.70;;;11.10;;
2213;SDS011;1113;42.018;23.986;2022-07-25T00:03:11;13.70;;;11.90;;
2213;SDS011;1113;42.018;23.986;2022-07-25T00:05:38;13.70;;;12.30;;
2213;SDS011;1113;42.018;23.986;2022-07-25T00:08:05;12.37;;;11.10;;
2213;SDS011;1113;42.018;23.986;2022-07-25T00:10:31;13.83;;;12.43;;
2213;SDS011;1113;42.018;23.986;2022-07-25T00:13:00;15.37;;;13.73;;
2213;SDS011;1113;42.018;23.986;2022-07-25T00:15:26;15.10;;;13.60;;
2213;SDS011;1113;42.018;23.986;2022-07-25T00:17:53;14.87;;;13.37;;
2213;SDS011;1113;42.018;23.986;2022-07-25T00:20:20;14.53;;;13.23;;
2213;SDS011;1113;42.018;23.986;2022-07-25T00:22:47;14.10;;;12.60;;
2213;SDS011;1113;42.018;23.986;2022-07-25T00:25:14;14.50;;;13.10;;
2213;SDS011;1113;42.018;23.986;2022-07-25T00:27:41;15.17;;;13.80;;
2213;SDS011;1113;42.018;23.986;2022-07-25T00:30:09;14.80;;;13.20;;
2213;SDS011;1113;42.018;23.986;2022-07-25T00:32:37;13.77;;;12.57;;
2213;SDS011;1113;42.018;23.986;2022-07-25T00:35:04;11.67;;;10.57;;
2213;SDS011;1113;42.018;23.986;2022-07-25T00:37:30;12.20;;;11.13;;
2213;SDS011;1113;42.018;23.986;2022-07-25T00:39:57;10.07;;;8.80;;
2213;SDS011;1113;42.018;23.986;2022-07-25T00:42:24;11.30;;;10.30;;
2213;SDS011;1113;42.018;23.986;2022-07-25T00:44:51;10.27;;;9.37;;
2213;SDS011;1113;42.018;23.986;2022-07-25T00:47:19;10.93;;;9.83;;
2213;SDS011;1113;42.018;23.986;2022-07-25T00:49:46;10.20;;;8.23;;
2213;SDS011;1113;42.018;23.986;2022-07-25T00:52:13;10.70;;;9.70;;
2213;SDS011;1113;42.018;23.986;2022-07-25T00:54:40;11.63;;;10.17;;
2213;SDS011;1113;42.018;23.986;2022-07-25T00:57:07;13.63;;;10.43;;
2213;SDS011;1113;42.018;23.986;2022-07-25T00:59:33;14.60;;;10.57;;
2213;SDS011;1113;42.018;23.986;2022-07-25T01:02:00;13.00;;;11.60;;
2213;SDS011;1113;42.018;23.986;2022-07-25T01:04:28;14.00;;;11.63;;
2213;SDS011;1113;42.018;23.986;2022-07-25T01:06:55;12.23;;;11.00;;
2213;SDS011;1113;42.018;23.986;2022-07-25T01:09:22;11.67;;;10.57;;
2213;SDS011;1113;42.018;23.986;2022-07-25T01:11:49;12.00;;;10.90;;
2213;SDS011;1113;42.018;23.986;2022-07-25T01:14:16;14.03;;;12.63;;
2213;SDS011;1113;42.018;23.986;2022-07-25T01:16:43;14.13;;;12.83;;
2213;SDS011;1113;42.018;23.986;2022-07-25T01:19:09;12.80;;;11.60;;
2213;SDS011;1113;42.018;23.986;2022-07-25T01:21:38;11.93;;;10.83;;
2213;SDS011;1113;42.018;23.986;2022-07-25T01:24:07;12.57;;;11.37;;
2213;SDS011;1113;42.018;23.986;2022-07-25T01:26:35;11.60;;;10.47;;
2213;SDS011;1113;42.018;23.986;2022-07-25T01:29:02;11.90;;;10.80;;
2213;SDS011;1113;42.018;23.986;2022-07-25T01:31:29;12.37;;;11.17;;
2213;SDS011;1113;42.018;23.986;2022-07-25T01:33:56;12.30;;;11.20;;
2213;SDS011;1113;42.018;23.986;2022-07-25T01:36:22;12.83;;;11.53;;
2213;SDS011;1113;42.018;23.986;2022-07-25T01:38:51;13.00;;;11.87;;
2213;SDS011;1113;42.018;23.986;2022-07-25T01:41:17;12.80;;;11.50;;
2213;SDS011;1113;42.018;23.986;2022-07-25T01:43:44;12.80;;;11.50;;
2213;SDS011;1113;42.018;23.986;2022-07-25T01:46:11;12.67;;;11.47;;
2213;SDS011;1113;42.018;23.986;2022-07-25T01:48:38;13.03;;;11.87;;
2213;SDS011;1113;42.018;23.986;2022-07-25T01:51:06;13.27;;;11.83;;
2213;SDS011;1113;42.018;23.986;2022-07-25T01:53:34;12.10;;;11.00;;
2213;SDS011;1113;42.018;23.986;2022-07-25T01:56:03;12.47;;;11.17;;
2213;SDS011;1113;42.018;23.986;2022-07-25T01:58:30;11.83;;;10.63;;
2213;SDS011;1113;42.018;23.986;2022-07-25T02:00:57;13.23;;;11.83;;
2213;SDS011;1113;42.018;23.986;2022-07-25T02:03:24;14.53;;;13.03;;
2213;SDS011;1113;42.018;23.986;2022-07-25T02:05:57;13.57;;;12.17;;
2213;SDS011;1113;42.018;23.986;2022-07-25T02:08:25;13.27;;;11.97;;
2213;SDS011;1113;42.018;23.986;2022-07-25T02:10:52;14.00;;;12.60;;
2213;SDS011;1113;42.018;23.986;2022-07-25T02:13:21;12.93;;;11.63;;
2213;SDS011;1113;42.018;23.986;2022-07-25T02:15:48;13.03;;;11.27;;
2213;SDS011;1113;42.018;23.986;2022-07-25T02:18:15;13.47;;;12.07;;
2213;SDS011;1113;42.018;23.986;2022-07-25T02:20:42;13.70;;;12.40;;
2213;SDS011;1113;42.018;23.986;2022-07-25T02:23:09;12.60;;;11.40;;
2213;SDS011;1113;42.018;23.986;2022-07-25T02:25:36;12.80;;;11.70;;
2213;SDS011;1113;42.018;23.986;2022-07-25T02:28:03;12.43;;;11.23;;
2213;SDS011;1113;42.018;23.986;2022-07-25T02:30:31;11.63;;;10.63;;
2213;SDS011;1113;42.018;23.986;2022-07-25T02:32:58;13.67;;;12.37;;
2213;SDS011;1113;42.018;23.986;2022-07-25T02:35:25;12.80;;;11.50;;
2213;SDS011;1113;42.018;23.986;2022-07-25T02:37:52;12.53;;;11.40;;
2213;SDS011;1113;42.018;23.986;2022-07-25T02:40:19;14.03;;;12.63;;
2213;SDS011;1113;42.018;23.986;2022-07-25T02:42:46;13.67;;;12.37;;
2213;SDS011;1113;42.018;23.986;2022-07-25T02:45:13;12.73;;;11.43;;
2213;SDS011;1113;42.018;23.986;2022-07-25T02:47:41;15.17;;;13.77;;
2213;SDS011;1113;42.018;23.986;2022-07-25T02:50:08;15.07;;;13.57;;
2213;SDS011;1113;42.018;23.986;2022-07-25T02:52:35;14.40;;;12.43;;
2213;SDS011;1113;42.018;23.986;2022-07-25T02:55:02;13.10;;;11.80;;
2213;SDS011;1113;42.018;23.986;2022-07-25T02:57:29;15.10;;;13.70;;
2213;SDS011;1113;42.018;23.986;2022-07-25T02:59:56;13.80;;;12.37;;
2213;SDS011;1113;42.018;23.986;2022-07-25T03:02:23;13.80;;;12.30;;
2213;SDS011;1113;42.018;23.986;2022-07-25T03:04:51;13.43;;;12.03;;
2213;SDS011;1113;42.018;23.986;2022-07-25T03:07:18;14.40;;;13.10;;
2213;SDS011;1113;42.018;23.986;2022-07-25T03:09:45;12.97;;;11.77;;
2213;SDS011;1113;42.018;23.986;2022-07-25T03:12:12;13.87;;;12.57;;
2213;SDS011;1113;42.018;23.986;2022-07-25T03:14:38;12.80;;;11.60;;
2213;SDS011;1113;42.018;23.986;2022-07-25T03:17:05;13.40;;;12.10;;
2213;SDS011;1113;42.018;23.986;2022-07-25T03:19:32;14.73;;;13.23;;
2213;SDS011;1113;42.018;23.986;2022-07-25T03:22:00;14.17;;;12.87;;
2213;SDS011;1113;42.018;23.986;2022-07-25T03:24:27;14.23;;;12.83;;
2213;SDS011;1113;42.018;23.986;2022-07-25T03:26:54;15.07;;;13.67;;
2213;SDS011;1113;42.018;23.986;2022-07-25T03:29:21;15.50;;;13.83;;
2213;SDS011;1113;42.018;23.986;2022-07-25T03:31:48;14.60;;;13.20;;
2213;SDS011;1113;42.018;23.986;2022-07-25T03:34:14;15.90;;;14.40;;
2213;SDS011;1113;42.018;23.986;2022-07-25T03:36:41;17.20;;;15.50;;
2213;SDS011;1113;42.018;23.986;2022-07-25T03:39:09;14.77;;;13.17;;
2213;SDS011;1113;42.018;23.986;2022-07-25T03:41:38;17.13;;;15.43;;
2213;SDS011;1113;42.018;23.986;2022-07-25T03:44:05;15.67;;;14.03;;
2213;SDS011;1113;42.018;23.986;2022-07-25T03:46:32;14.60;;;13.10;;
2213;SDS011;1113;42.018;23.986;2022-07-25T03:48:59;15.10;;;13.60;;
2213;SDS011;1113;42.018;23.986;2022-07-25T03:51:26;15.67;;;14.17;;
2213;SDS011;1113;42.018;23.986;2022-07-25T03:53:53;16.17;;;14.17;;
2213;SDS011;1113;42.018;23.986;2022-07-25T03:56:31;17.33;;;14.27;;
2213;SDS011;1113;42.018;23.986;2022-07-25T03:59:01;15.30;;;13.80;;
2213;SDS011;1113;42.018;23.986;2022-07-25T04:01:28;15.70;;;14.10;;
2213;SDS011;1113;42.018;23.986;2022-07-25T04:03:55;16.30;;;14.60;;
2213;SDS011;1113;42.018;23.986;2022-07-25T04:06:22;16.70;;;15.00;;
2213;SDS011;1113;42.018;23.986;2022-07-25T04:08:49;16.33;;;14.63;;
2213;SDS011;1113;42.018;23.986;2022-07-25T04:11:16;17.10;;;15.37;;
2213;SDS011;1113;42.018;23.986;2022-07-25T04:13:45;16.63;;;15.10;;
2213;SDS011;1113;42.018;23.986;2022-07-25T04:16:12;17.93;;;15.53;;
2213;SDS011;1113;42.018;23.986;2022-07-25T04:18:39;18.40;;;15.47;;
2213;SDS011;1113;42.018;23.986;2022-07-25T04:21:06;16.13;;;14.57;;
2213;SDS011;1113;42.018;23.986;2022-07-25T04:23:34;15.10;;;13.50;;
2213;SDS011;1113;42.018;23.986;2022-07-25T04:26:01;15.43;;;14.00;;
2213;SDS011;1113;42.018;23.986;2022-07-25T04:28:28;17.77;;;16.07;;
2213;SDS011;1113;42.018;23.986;2022-07-25T04:30:58;18.13;;;15.77;;
2213;SDS011;1113;42.018;23.986;2022-07-25T04:33:25;18.10;;;16.20;;
2213;SDS011;1113;42.018;23.986;2022-07-25T04:35:52;16.50;;;15.00;;
2213;SDS011;1113;42.018;23.986;2022-07-25T04:38:19;18.73;;;16.40;;
2213;SDS011;1113;42.018;23.986;2022-07-25T04:40:46;16.90;;;15.30;;
2213;SDS011;1113;42.018;23.986;2022-07-25T04:43:13;18.13;;;16.23;;
2213;SDS011;1113;42.018;23.986;2022-07-25T04:45:40;17.57;;;15.70;;
2213;SDS011;1113;42.018;23.986;2022-07-25T04:48:08;16.50;;;14.90;;
2213;SDS011;1113;42.018;23.986;2022-07-25T04:50:35;17.97;;;16.30;;
2213;SDS011;1113;42.018;23.986;2022-07-25T04:53:02;16.97;;;15.37;;
2213;SDS011;1113;42.018;23.986;2022-07-25T04:55:29;17.47;;;15.67;;
2213;SDS011;1113;42.018;23.986;2022-07-25T04:57:57;18.17;;;15.13;;
2213;SDS011;1113;42.018;23.986;2022-07-25T05:00:24;16.43;;;14.73;;
2213;SDS011;1113;42.018;23.986;2022-07-25T05:02:52;19.03;;;16.97;;
2213;SDS011;1113;42.018;23.986;2022-07-25T05:05:20;20.00;;;17.03;;
2213;SDS011;1113;42.018;23.986;2022-07-25T05:07:47;17.07;;;15.47;;
2213;SDS011;1113;42.018;23.986;2022-07-25T05:10:14;21.40;;;19.20;;
2213;SDS011;1113;42.018;23.986;2022-07-25T05:12:41;19.53;;;17.63;;
2213;SDS011;1113;42.018;23.986;2022-07-25T05:15:08;20.17;;;18.17;;
2213;SDS011;1113;42.018;23.986;2022-07-25T05:17:36;18.33;;;16.63;;
2213;SDS011;1113;42.018;23.986;2022-07-25T05:20:03;18.90;;;15.80;;
2213;SDS011;1113;42.018;23.986;2022-07-25T05:22:32;18.90;;;17.10;;
2213;SDS011;1113;42.018;23.986;2022-07-25T05:24:59;16.80;;;15.20;;
2213;SDS011;1113;42.018;23.986;2022-07-25T05:27:26;17.43;;;15.83;;
2213;SDS011;1113;42.018;23.986;2022-07-25T05:29:53;15.67;;;14.17;;
2213;SDS011;1113;42.018;23.986;2022-07-25T05:32:20;18.80;;;16.70;;
2213;SDS011;1113;42.018;23.986;2022-07-25T05:34:47;17.67;;;15.87;;
2213;SDS011;1113;42.018;23.986;2022-07-25T05:37:13;16.63;;;15.03;;
2213;SDS011;1113;42.018;23.986;2022-07-25T05:39:42;16.87;;;15.23;;
2213;SDS011;1113;42.018;23.986;2022-07-25T05:42:09;18.83;;;16.90;;
2213;SDS011;1113;42.018;23.986;2022-07-25T05:44:35;18.00;;;16.30;;
2213;SDS011;1113;42.018;23.986;2022-07-25T05:47:02;16.87;;;15.27;;
2213;SDS011;1113;42.018;23.986;2022-07-25T05:49:29;18.80;;;16.90;;
2213;SDS011;1113;42.018;23.986;2022-07-25T05:51:56;18.37;;;16.57;;
2213;SDS011;1113;42.018;23.986;2022-07-25T05:54:23;18.57;;;16.60;;
2213;SDS011;1113;42.018;23.986;2022-07-25T05:56:51;20.43;;;18.40;;
2213;SDS011;1113;42.018;23.986;2022-07-25T05:59:18;17.50;;;15.90;;
2213;SDS011;1113;42.018;23.986;2022-07-25T06:01:45;17.50;;;15.70;;
2213;SDS011;1113;42.018;23.986;2022-07-25T06:04:12;18.40;;;16.60;;
2213;SDS011;1113;42.018;23.986;2022-07-25T06:06:38;15.80;;;14.30;;
2213;SDS011;1113;42.018;23.986;2022-07-25T06:09:05;17.17;;;15.37;;
2213;SDS011;1113;42.018;23.986;2022-07-25T06:11:32;17.60;;;15.90;;
2213;SDS011;1113;42.018;23.986;2022-07-25T06:14:00;19.57;;;16.67;;
2213;SDS011;1113;42.018;23.986;2022-07-25T06:16:28;17.83;;;16.03;;
2213;SDS011;1113;42.018;23.986;2022-07-25T06:18:55;18.93;;;17.03;;
2213;SDS011;1113;42.018;23.986;2022-07-25T06:21:21;16.70;;;15.10;;
2213;SDS011;1113;42.018;23.986;2022-07-25T06:23:48;18.57;;;16.77;;
2213;SDS011;1113;42.018;23.986;2022-07-25T06:26:15;18.43;;;16.53;;
2213;SDS011;1113;42.018;23.986;2022-07-25T06:28:42;17.63;;;15.43;;
2213;SDS011;1113;42.018;23.986;2022-07-25T06:31:10;20.90;;;16.80;;
2213;SDS011;1113;42.018;23.986;2022-07-25T06:33:37;18.97;;;17.20;;
2213;SDS011;1113;42.018;23.986;2022-07-25T06:36:04;18.77;;;16.87;;
2213;SDS011;1113;42.018;23.986;2022-07-25T06:38:31;18.03;;;16.33;;
2213;SDS011;1113;42.018;23.986;2022-07-25T06:40:58;17.43;;;15.73;;
2213;SDS011;1113;42.018;23.986;2022-07-25T06:43:25;18.07;;;16.27;;
2213;SDS011;1113;42.018;23.986;2022-07-25T06:45:52;17.63;;;15.83;;
2213;SDS011;1113;42.018;23.986;2022-07-25T06:48:20;19.40;;;17.50;;
2213;SDS011;1113;42.018;23.986;2022-07-25T06:50:48;16.77;;;15.13;;
2213;SDS011;1113;42.018;23.986;2022-07-25T06:53:15;17.77;;;16.07;;
2213;SDS011;1113;42.018;23.986;2022-07-25T06:55:43;19.10;;;17.30;;
2213;SDS011;1113;42.018;23.986;2022-07-25T06:58:57;18.57;;;16.60;;
2213;SDS011;1113;42.018;23.986;2022-07-25T07:01:24;20.67;;;18.63;;
2213;SDS011;1113;42.018;23.986;2022-07-25T07:03:53;18.20;;;16.50;;
2213;SDS011;1113;42.018;23.986;2022-07-25T07:06:20;17.20;;;15.70;;
2213;SDS011;1113;42.018;23.986;2022-07-25T07:08:48;16.97;;;15.37;;
2213;SDS011;1113;42.018;23.986;2022-07-25T07:11:15;18.23;;;16.43;;
2213;SDS011;1113;42.018;23.986;2022-07-25T07:13:42;18.13;;;16.33;;
2213;SDS011;1113;42.018;23.986;2022-07-25T07:16:09;17.07;;;15.57;;
2213;SDS011;1113;42.018;23.986;2022-07-25T07:18:36;18.97;;;16.77;;
2213;SDS011;1113;42.018;23.986;2022-07-25T07:21:05;17.20;;;15.60;;
2213;SDS011;1113;42.018;23.986;2022-07-25T07:23:32;16.17;;;14.77;;
2213;SDS011;1113;42.018;23.986;2022-07-25T07:25:59;18.30;;;16.50;;
2213;SDS011;1113;42.018;23.986;2022-07-25T07:28:26;17.77;;;15.97;;
2213;SDS011;1113;42.018;23.986;2022-07-25T07:30:53;18.57;;;16.70;;
2213;SDS011;1113;42.018;23.986;2022-07-25T07:33:19;19.87;;;18.07;;
2213;SDS011;1113;42.018;23.986;2022-07-25T07:35:46;18.67;;;17.00;;
2213;SDS011;1113;42.018;23.986;2022-07-25T07:38:14;17.37;;;15.70;;
2213;SDS011;1113;42.018;23.986;2022-07-25T07:40:42;19.13;;;17.30;;
2213;SDS011;1113;42.018;23.986;2022-07-25T07:43:09;18.00;;;16.40;;
2213;SDS011;1113;42.018;23.986;2022-07-25T07:45:36;16.63;;;15.00;;
2213;SDS011;1113;42.018;23.986;2022-07-25T07:48:04;16.77;;;15.27;;
2213;SDS011;1113;42.018;23.986;2022-07-25T07:50:32;16.30;;;14.90;;
2213;SDS011;1113;42.018;23.986;2022-07-25T07:52:59;17.50;;;15.87;;
2213;SDS011;1113;42.018;23.986;2022-07-25T07:55:27;16.23;;;14.73;;
2213;SDS011;1113;42.018;23.986;2022-07-25T07:58:13;16.87;;;15.10;;
2213;SDS011;1113;42.018;23.986;2022-07-25T08:00:41;16.17;;;14.63;;
2213;SDS011;1113;42.018;23.986;2022-07-25T08:03:09;13.10;;;11.80;;
2213;SDS011;1113;42.018;23.986;2022-07-25T08:05:36;13.60;;;12.37;;
2213;SDS011;1113;42.018;23.986;2022-07-25T08:08:05;15.43;;;14.03;;
2213;SDS011;1113;42.018;23.986;2022-07-25T08:10:35;15.77;;;12.90;;
2213;SDS011;1113;42.018;23.986;2022-07-25T08:13:10;13.17;;;11.87;;
2213;SDS011;1113;42.018;23.986;2022-07-25T08:15:41;12.80;;;11.50;;
2213;SDS011;1113;42.018;23.986;2022-07-25T08:18:09;31.40;;;14.07;;
2213;SDS011;1113;42.018;23.986;2022-07-25T08:20:37;14.23;;;11.70;;
2213;SDS011;1113;42.018;23.986;2022-07-25T08:23:04;13.00;;;11.80;;
2213;SDS011;1113;42.018;23.986;2022-07-25T08:25:34;13.60;;;12.20;;
2213;SDS011;1113;42.018;23.986;2022-07-25T08:28:01;13.73;;;12.33;;
2213;SDS011;1113;42.018;23.986;2022-07-25T08:30:30;13.30;;;12.10;;
2213;SDS011;1113;42.018;23.986;2022-07-25T08:33:00;13.40;;;11.77;;
2213;SDS011;1113;42.018;23.986;2022-07-25T08:35:29;14.57;;;13.00;;
2213;SDS011;1113;42.018;23.986;2022-07-25T08:37:58;12.93;;;11.77;;
2213;SDS011;1113;42.018;23.986;2022-07-25T08:40:29;12.10;;;10.87;;
2213;SDS011;1113;42.018;23.986;2022-07-25T08:42:58;11.80;;;10.70;;
2213;SDS011;1113;42.018;23.986;2022-07-25T08:45:29;12.33;;;10.37;;
2213;SDS011;1113;42.018;23.986;2022-07-25T08:47:56;11.97;;;10.77;;
2213;SDS011;1113;42.018;23.986;2022-07-25T08:50:24;11.20;;;10.07;;
2213;SDS011;1113;42.018;23.986;2022-07-25T08:52:52;12.47;;;10.27;;
2213;SDS011;1113;42.018;23.986;2022-07-25T08:55:20;12.17;;;11.07;;
2213;SDS011;1113;42.018;23.986;2022-07-25T08:57:48;11.40;;;10.40;;
2213;SDS011;1113;42.018;23.986;2022-07-25T09:00:22;11.23;;;10.00;;
2213;SDS011;1113;42.018;23.986;2022-07-25T09:02:50;11.00;;;10.10;;
2213;SDS011;1113;42.018;23.986;2022-07-25T09:05:21;11.70;;;10.70;;
2213;SDS011;1113;42.018;23.986;2022-07-25T09:07:54;10.50;;;9.60;;
2213;SDS011;1113;42.018;23.986;2022-07-25T09:10:43;13.07;;;8.13;;
2213;SDS011;1113;42.018;23.986;2022-07-25T09:13:12;9.13;;;7.80;;
2213;SDS011;1113;42.018;23.986;2022-07-25T09:15:43;8.93;;;7.80;;
2213;SDS011;1113;42.018;23.986;2022-07-25T09:18:13;9.47;;;8.67;;
2213;SDS011;1113;42.018;23.986;2022-07-25T09:20:42;8.60;;;7.80;;
2213;SDS011;1113;42.018;23.986;2022-07-25T09:23:12;8.90;;;7.80;;
2213;SDS011;1113;42.018;23.986;2022-07-25T09:25:48;9.10;;;8.40;;
2213;SDS011;1113;42.018;23.986;2022-07-25T09:31:16;8.47;;;7.67;;
2213;SDS011;1113;42.018;23.986;2022-07-25T09:33:45;7.63;;;6.93;;
2213;SDS011;1113;42.018;23.986;2022-07-25T09:36:13;8.17;;;7.43;;
2213;SDS011;1113;42.018;23.986;2022-07-25T09:38:50;7.87;;;7.17;;
2213;SDS011;1113;42.018;23.986;2022-07-25T09:41:17;8.10;;;7.33;;
2213;SDS011;1113;42.018;23.986;2022-07-25T09:43:44;13.37;;;7.27;;
2213;SDS011;1113;42.018;23.986;2022-07-25T09:46:11;7.50;;;6.90;;
2213;SDS011;1113;42.018;23.986;2022-07-25T09:48:43;6.97;;;6.40;;
2213;SDS011;1113;42.018;23.986;2022-07-25T09:51:10;6.67;;;6.03;;
2213;SDS011;1113;42.018;23.986;2022-07-25T09:53:37;7.13;;;6.43;;
2213;SDS011;1113;42.018;23.986;2022-07-25T09:56:04;6.63;;;5.73;;
2213;SDS011;1113;42.018;23.986;2022-07-25T09:58:32;6.60;;;6.00;;
2213;SDS011;1113;42.018;23.986;2022-07-25T10:01:00;7.23;;;6.53;;
2213;SDS011;1113;42.018;23.986;2022-07-25T10:03:32;7.10;;;6.40;;
2213;SDS011;1113;42.018;23.986;2022-07-25T10:06:14;7.50;;;6.80;;
2213;SDS011;1113;42.018;23.986;2022-07-25T10:08:47;7.60;;;6.90;;
2213;SDS011;1113;42.018;23.986;2022-07-25T10:11:18;6.20;;;5.60;;
2213;SDS011;1113;42.018;23.986;2022-07-25T10:13:46;6.77;;;6.27;;
2213;SDS011;1113;42.018;23.986;2022-07-25T10:16:14;7.07;;;5.63;;
2213;SDS011;1113;42.018;23.986;2022-07-25T10:18:50;9.20;;;6.00;;
2213;SDS011;1113;42.018;23.986;2022-07-25T10:21:19;6.50;;;5.90;;
2213;SDS011;1113;42.018;23.986;2022-07-25T10:23:56;6.97;;;6.37;;
2213;SDS011;1113;42.018;23.986;2022-07-25T10:26:26;6.87;;;6.27;;
2213;SDS011;1113;42.018;23.986;2022-07-25T10:28:54;6.97;;;6.37;;
2213;SDS011;1113;42.018;23.986;2022-07-25T10:31:22;6.87;;;5.97;;
2213;SDS011;1113;42.018;23.986;2022-07-25T10:33:53;6.70;;;5.80;;
2213;SDS011;1113;42.018;23.986;2022-07-25T10:36:22;9.83;;;6.67;;
2213;SDS011;1113;42.018;23.986;2022-07-25T10:38:55;7.67;;;7.00;;
2213;SDS011;1113;42.018;23.986;2022-07-25T10:41:23;6.83;;;6.20;;
2213;SDS011;1113;42.018;23.986;2022-07-25T10:43:55;6.23;;;5.73;;
2213;SDS011;1113;42.018;23.986;2022-07-25T10:46:26;6.10;;;5.60;;
2213;SDS011;1113;42.018;23.986;2022-07-25T10:49:00;6.30;;;5.80;;
2213;SDS011;1113;42.018;23.986;2022-07-25T10:51:30;6.93;;;6.20;;
2213;SDS011;1113;42.018;23.986;2022-07-25T10:54:11;10.00;;;6.10;;
2213;SDS011;1113;42.018;23.986;2022-07-25T10:56:52;7.33;;;6.30;;
2213;SDS011;1113;42.018;23.986;2022-07-25T10:59:30;5.83;;;5.30;;
2213;SDS011;1113;42.018;23.986;2022-07-25T11:01:59;10.30;;;6.30;;
2213;SDS011;1113;42.018;23.986;2022-07-25T11:04:28;7.30;;;6.70;;
2213;SDS011;1113;42.018;23.986;2022-07-25T11:06:55;6.43;;;5.83;;
2213;SDS011;1113;42.018;23.986;2022-07-25T11:09:23;6.77;;;6.17;;
2213;SDS011;1113;42.018;23.986;2022-07-25T11:11:52;5.70;;;5.20;;
2213;SDS011;1113;42.018;23.986;2022-07-25T11:14:21;5.43;;;4.90;;
2213;SDS011;1113;42.018;23.986;2022-07-25T11:16:51;5.70;;;4.83;;
2213;SDS011;1113;42.018;23.986;2022-07-25T11:22:10;5.07;;;4.47;;
2213;SDS011;1113;42.018;23.986;2022-07-25T11:24:38;6.40;;;4.90;;
2213;SDS011;1113;42.018;23.986;2022-07-25T11:27:07;7.57;;;5.23;;
2213;SDS011;1113;42.018;23.986;2022-07-25T11:29:35;4.73;;;4.33;;
2213;SDS011;1113;42.018;23.986;2022-07-25T11:32:04;5.20;;;4.80;;
2213;SDS011;1113;42.018;23.986;2022-07-25T11:34:33;5.30;;;4.80;;
2213;SDS011;1113;42.018;23.986;2022-07-25T11:46:39;5.13;;;4.63;;
2213;SDS011;1113;42.018;23.986;2022-07-25T11:49:08;5.20;;;4.80;;
2213;SDS011;1113;42.018;23.986;2022-07-25T11:51:35;7.13;;;5.10;;
2213;SDS011;1113;42.018;23.986;2022-07-25T11:54:06;4.27;;;3.67;;
2213;SDS011;1113;42.018;23.986;2022-07-25T11:56:36;4.87;;;4.47;;
2213;SDS011;1113;42.018;23.986;2022-07-25T11:59:04;5.10;;;4.60;;
2213;SDS011;1113;42.018;23.986;2022-07-25T12:01:34;5.23;;;4.73;;
2213;SDS011;1113;42.018;23.986;2022-07-25T12:07:20;5.40;;;4.90;;
2213;SDS011;1113;42.018;23.986;2022-07-25T12:09:54;9.53;;;5.17;;
2213;SDS011;1113;42.018;23.986;2022-07-25T12:12:21;9.00;;;5.43;;
2213;SDS011;1113;42.018;23.986;2022-07-25T12:14:50;5.73;;;5.13;;
2213;SDS011;1113;42.018;23.986;2022-07-25T12:17:17;6.20;;;5.60;;
2213;SDS011;1113;42.018;23.986;2022-07-25T12:19:44;7.67;;;5.80;;
2213;SDS011;1113;42.018;23.986;2022-07-25T12:22:12;17.63;;;6.67;;
2213;SDS011;1113;42.018;23.986;2022-07-25T12:24:39;7.43;;;5.47;;
2213;SDS011;1113;42.018;23.986;2022-07-25T12:27:05;6.13;;;5.60;;
2213;SDS011;1113;42.018;23.986;2022-07-25T12:29:35;7.70;;;6.00;;
2213;SDS011;1113;42.018;23.986;2022-07-25T12:32:04;6.20;;;5.63;;
2213;SDS011;1113;42.018;23.986;2022-07-25T12:34:31;6.20;;;5.70;;
2213;SDS011;1113;42.018;23.986;2022-07-25T12:36:58;6.80;;;6.20;;
2213;SDS011;1113;42.018;23.986;2022-07-25T12:39:25;6.77;;;6.17;;
2213;SDS011;1113;42.018;23.986;2022-07-25T12:41:52;6.83;;;6.33;;
2213;SDS011;1113;42.018;23.986;2022-07-25T12:44:19;6.97;;;6.27;;
2213;SDS011;1113;42.018;23.986;2022-07-25T12:46:45;7.20;;;6.50;;
2213;SDS011;1113;42.018;23.986;2022-07-25T12:49:13;8.33;;;7.53;;
2213;SDS011;1113;42.018;23.986;2022-07-25T12:51:40;7.37;;;6.63;;
2213;SDS011;1113;42.018;23.986;2022-07-25T12:54:07;8.60;;;6.87;;
2213;SDS011;1113;42.018;23.986;2022-07-25T12:56:34;7.03;;;6.30;;
2213;SDS011;1113;42.018;23.986;2022-07-25T12:59:01;7.93;;;7.17;;
2213;SDS011;1113;42.018;23.986;2022-07-25T13:01:33;7.53;;;6.93;;
2213;SDS011;1113;42.018;23.986;2022-07-25T13:04:00;8.47;;;7.67;;
2213;SDS011;1113;42.018;23.986;2022-07-25T13:09:17;8.70;;;7.90;;
2213;SDS011;1113;42.018;23.986;2022-07-25T13:11:44;7.83;;;7.13;;
2213;SDS011;1113;42.018;23.986;2022-07-25T13:14:20;8.40;;;7.30;;
2213;SDS011;1113;42.018;23.986;2022-07-25T13:16:50;7.93;;;7.33;;
2213;SDS011;1113;42.018;23.986;2022-07-25T13:19:26;7.33;;;6.63;;
2213;SDS011;1113;42.018;23.986;2022-07-25T13:22:04;7.83;;;7.03;;
2213;SDS011;1113;42.018;23.986;2022-07-25T13:24:31;13.87;;;12.50;;
2213;SDS011;1113;42.018;23.986;2022-07-25T13:27:01;10.90;;;8.10;;
2213;SDS011;1113;42.018;23.986;2022-07-25T13:29:28;10.13;;;9.15;;
2213;SDS011;1113;42.018;23.986;2022-07-25T13:31:55;9.88;;;8.88;;
2213;SDS011;1113;42.018;23.986;2022-07-25T13:34:22;10.13;;;7.20;;
2213;SDS011;1113;42.018;23.986;2022-07-25T13:36:48;11.10;;;7.93;;
2213;SDS011;1113;42.018;23.986;2022-07-25T13:39:17;8.83;;;7.67;;
2213;SDS011;1113;42.018;23.986;2022-07-25T13:41:46;10.10;;;7.60;;
2213;SDS011;1113;42.018;23.986;2022-07-25T13:44:13;8.87;;;7.97;;
2213;SDS011;1113;42.018;23.986;2022-07-25T13:46:40;8.53;;;7.73;;
2213;SDS011;1113;42.018;23.986;2022-07-25T13:49:07;8.70;;;7.90;;
2213;SDS011;1113;42.018;23.986;2022-07-25T13:51:34;9.37;;;8.57;;
2213;SDS011;1113;42.018;23.986;2022-07-25T13:54:01;7.80;;;7.00;;
2213;SDS011;1113;42.018;23.986;2022-07-25T13:56:29;8.40;;;7.70;;
2213;SDS011;1113;42.018;23.986;2022-07-25T13:58:57;8.77;;;7.70;;
2213;SDS011;1113;42.018;23.986;2022-07-25T14:01:23;12.57;;;7.93;;
2213;SDS011;1113;42.018;23.986;2022-07-25T14:03:52;8.50;;;7.53;;
2213;SDS011;1113;42.018;23.986;2022-07-25T14:06:19;9.40;;;8.60;;
2213;SDS011;1113;42.018;23.986;2022-07-25T14:08:46;9.93;;;8.93;;
2213;SDS011;1113;42.018;23.986;2022-07-25T14:11:13;9.10;;;8.30;;
2213;SDS011;1113;42.018;23.986;2022-07-25T14:13:41;9.93;;;7.50;;
2213;SDS011;1113;42.018;23.986;2022-07-25T14:16:09;8.70;;;8.00;;
2213;SDS011;1113;42.018;23.986;2022-07-25T14:18:38;8.23;;;7.53;;
2213;SDS011;1113;42.018;23.986;2022-07-25T14:21:05;9.00;;;8.13;;
2213;SDS011;1113;42.018;23.986;2022-07-25T14:23:34;8.27;;;7.47;;
2213;SDS011;1113;42.018;23.986;2022-07-25T14:26:01;7.97;;;7.30;;
2213;SDS011;1113;42.018;23.986;2022-07-25T14:28:28;8.60;;;7.80;;
2213;SDS011;1113;42.018;23.986;2022-07-25T14:30:56;9.20;;;8.10;;
2213;SDS011;1113;42.018;23.986;2022-07-25T14:33:33;8.07;;;7.27;;
2213;SDS011;1113;42.018;23.986;2022-07-25T14:36:04;9.30;;;7.90;;
2213;SDS011;1113;42.018;23.986;2022-07-25T14:38:31;8.33;;;7.53;;
2213;SDS011;1113;42.018;23.986;2022-07-25T14:40:58;8.03;;;7.33;;
2213;SDS011;1113;42.018;23.986;2022-07-25T14:43:25;12.67;;;11.43;;
2213;SDS011;1113;42.018;23.986;2022-07-25T14:45:52;9.60;;;8.23;;
2213;SDS011;1113;42.018;23.986;2022-07-25T14:48:20;8.50;;;7.60;;
2213;SDS011;1113;42.018;23.986;2022-07-25T14:50:47;8.63;;;7.83;;
2213;SDS011;1113;42.018;23.986;2022-07-25T14:53:14;7.73;;;7.13;;
2213;SDS011;1113;42.018;23.986;2022-07-25T14:55:41;7.90;;;7.20;;
2213;SDS011;1113;42.018;23.986;2022-07-25T14:58:08;8.57;;;7.80;;
2213;SDS011;1113;42.018;23.986;2022-07-25T15:00:36;8.73;;;7.80;;
2213;SDS011;1113;42.018;23.986;2022-07-25T15:03:06;10.03;;;8.33;;
2213;SDS011;1113;42.018;23.986;2022-07-25T15:05:35;9.20;;;8.30;;
2213;SDS011;1113;42.018;23.986;2022-07-25T15:08:02;9.97;;;7.67;;
2213;SDS011;1113;42.018;23.986;2022-07-25T15:10:30;9.07;;;8.20;;